Time;durP1;ratioP1;P1;durP2;ratioP2;P2;SDS_P1;SDS_P2;PMS_P1;PMS_P2;Temp;Humidity;BMP_temperature;BMP_pressure;BME280_temperature;BME280_humidity;BME280_pressure;Samples;Min_cycle;Max_cycle;Signal;HPM_P1;HPM_P2
2020/12/11 00:00:56;;;;;;;231.10;123.70;;;;;;;3.22;73.87;93784.87;1815025;79;21143;-53
2020/12/11 00:03:25;;;;;;;251.18;134.22;;;;;;;3.20;73.68;93786.63;1815214;79;21544;-56
2020/12/11 00:05:54;;;;;;;195.43;104.38;;;;;;;3.14;73.89;93786.20;1815181;79;21264;-53
2020/12/11 00:08:23;;;;;;;197.05;113.83;;;;;;;3.11;73.96;93785.69;1815006;79;21182;-54
2020/12/11 00:10:53;;;;;;;204.63;115.32;;;;;;;3.03;74.31;93786.44;1815174;79;21155;-53
2020/12/11 00:13:22;;;;;;;207.87;116.00;;;;;;;3.03;74.54;93788.41;1815318;79;21127;-55
2020/12/11 00:15:51;;;;;;;194.37;113.50;;;;;;;3.04;74.74;93788.58;1815193;79;21527;-58
2020/12/11 00:18:20;;;;;;;217.05;119.08;;;;;;;3.11;74.71;93791.13;1779229;79;23492;-52
2020/12/11 00:20:48;;;;;;;206.20;118.02;;;;;;;3.13;74.66;93790.11;1808731;79;22155;-52
2020/12/11 00:23:17;;;;;;;204.93;113.10;;;;;;;3.13;74.84;93791.47;1808889;79;21476;-51
2020/12/11 00:25:45;;;;;;;202.60;110.60;;;;;;;3.18;74.96;93786.88;1808931;79;21187;-52
2020/12/11 00:28:14;;;;;;;245.20;124.22;;;;;;;3.23;74.83;93791.83;1780213;79;21595;-52
2020/12/11 00:30:43;;;;;;;225.22;117.72;;;;;;;3.25;74.73;93796.24;1809061;79;22217;-52
2020/12/11 00:33:12;;;;;;;215.32;119.33;;;;;;;3.23;74.77;93793.94;1808606;79;21568;-53
2020/12/11 00:35:41;;;;;;;218.02;119.72;;;;;;;3.27;74.84;93795.97;1808950;79;21611;-53
2020/12/11 00:38:09;;;;;;;214.97;121.85;;;;;;;3.30;74.79;93795.15;1808841;79;21171;-54
2020/12/11 00:40:38;;;;;;;216.05;114.28;;;;;;;3.36;74.72;93803.54;1809007;79;21501;-51
2020/12/11 00:43:08;;;;;;;168.78;91.87;;;;;;;3.41;74.74;93798.97;1808450;79;21207;-52
2020/12/11 00:45:36;;;;;;;188.27;101.27;;;;;;;3.44;74.52;93798.13;1808695;79;21500;-55
2020/12/11 00:48:11;;;;;;;203.75;112.85;;;;;;;3.36;74.44;93792.66;1808762;79;21556;-52
2020/12/11 00:50:51;;;;;;;204.45;114.92;;;;;;;3.31;74.74;93798.62;1808744;78;21154;-53
2020/12/11 00:53:28;;;;;;;211.25;115.45;;;;;;;3.37;74.68;93799.63;1782639;79;21647;-51
2020/12/11 00:55:56;;;;;;;191.70;104.17;;;;;;;3.41;74.77;93798.97;1808935;79;21500;-52
2020/12/11 00:58:25;;;;;;;227.30;123.53;;;;;;;3.41;74.75;93796.26;1808899;79;21560;-52
2020/12/11 01:00:54;;;;;;;214.80;116.05;;;;;;;3.36;74.88;93795.38;1809026;79;21520;-52
2020/12/11 01:03:23;;;;;;;235.35;125.10;;;;;;;3.40;75.07;93796.09;1808814;79;21166;-51
2020/12/11 01:05:52;;;;;;;223.85;123.10;;;;;;;3.48;74.93;93797.61;1808707;79;21178;-53
2020/12/11 01:08:20;;;;;;;216.17;122.15;;;;;;;3.56;74.85;93786.75;1808651;79;21431;-50
2020/12/11 01:10:50;;;;;;;198.20;106.78;;;;;;;3.67;74.86;93789.20;1808762;79;21151;-53
2020/12/11 01:13:19;;;;;;;211.57;118.60;;;;;;;3.76;74.44;93790.13;1808812;79;21465;-53
2020/12/11 01:15:48;;;;;;;212.05;116.40;;;;;;;3.67;74.30;93793.28;1808999;79;21183;-51
2020/12/11 01:18:17;;;;;;;239.65;130.85;;;;;;;3.57;74.49;93789.63;1813881;79;21151;-53
2020/12/11 01:20:45;;;;;;;213.05;118.50;;;;;;;3.52;74.76;93786.05;1815024;79;21379;-53
2020/12/11 01:23:14;;;;;;;270.02;143.20;;;;;;;3.52;74.74;93783.33;1814723;79;21141;-53
2020/12/11 01:25:43;;;;;;;218.20;121.20;;;;;;;3.47;74.96;93778.23;1814886;79;21120;-53
2020/12/11 01:28:11;;;;;;;224.25;130.45;;;;;;;3.51;75.03;93768.81;1814654;79;21152;-60
2020/12/11 01:30:41;;;;;;;205.72;115.85;;;;;;;3.51;75.02;93775.00;1814931;79;21596;-54
2020/12/11 01:33:10;;;;;;;229.85;123.87;;;;;;;3.49;74.98;93776.03;1814844;79;21493;-53
2020/12/11 01:35:38;;;;;;;218.95;122.70;;;;;;;3.46;75.11;93774.00;1814883;79;21645;-53
2020/12/11 01:38:07;;;;;;;219.18;123.67;;;;;;;3.49;75.33;93772.56;1814711;79;21212;-54
2020/12/11 01:40:36;;;;;;;240.97;130.37;;;;;;;3.56;75.23;93763.64;1814779;79;21160;-51
2020/12/11 01:43:05;;;;;;;262.88;138.57;;;;;;;3.60;75.13;93768.38;1814585;78;21119;-53
2020/12/11 01:45:33;;;;;;;226.70;128.75;;;;;;;3.63;75.08;93767.53;1814845;79;22328;-51
2020/12/11 01:48:02;;;;;;;224.60;126.07;;;;;;;3.68;75.13;93766.25;1814805;79;21665;-53
2020/12/11 01:50:30;;;;;;;232.75;125.65;;;;;;;3.78;75.21;93767.34;1814964;79;21609;-51
2020/12/11 01:52:58;;;;;;;232.62;127.32;;;;;;;3.88;74.88;93761.46;1814632;79;21617;-52
2020/12/11 01:55:28;;;;;;;231.50;125.95;;;;;;;3.92;74.50;93754.74;1814953;79;21462;-56
2020/12/11 01:58:01;;;;;;;217.53;121.72;;;;;;;3.92;74.51;93743.86;1814814;78;22151;-53
2020/12/11 02:00:29;;;;;;;271.82;144.97;;;;;;;3.93;74.21;93746.75;1814878;79;21136;-52
2020/12/11 02:03:10;;;;;;;261.62;141.60;;;;;;;3.88;74.18;93758.73;1814844;79;21175;-54
2020/12/11 02:05:38;;;;;;;250.70;139.15;;;;;;;3.77;74.06;93759.02;1815036;78;21133;-50
2020/12/11 02:08:07;;;;;;;254.25;141.82;;;;;;;3.62;74.51;93753.77;1815004;79;21149;-50
2020/12/11 02:10:36;;;;;;;256.17;140.73;;;;;;;3.64;74.96;93743.22;1814987;79;22371;-55
2020/12/11 02:13:06;;;;;;;232.70;126.02;;;;;;;3.72;75.13;93741.84;1814916;79;21092;-56
2020/12/11 02:15:35;;;;;;;200.32;114.70;;;;;;;3.86;74.76;93745.55;1814954;79;21089;-50
2020/12/11 02:18:05;;;;;;;216.27;121.65;;;;;;;3.83;74.25;93749.14;1814874;79;21160;-52
2020/12/11 02:20:36;;;;;;;220.70;123.80;;;;;;;3.68;74.30;93749.33;1815187;78;21164;-53
2020/12/11 02:23:05;;;;;;;214.97;123.02;;;;;;;3.63;74.93;93756.65;1814990;78;21431;-53
2020/12/11 02:25:35;;;;;;;229.97;129.55;;;;;;;3.74;75.00;93750.36;1815218;79;22117;-53
2020/12/11 02:28:04;;;;;;;227.72;128.90;;;;;;;3.81;74.78;93743.36;1815113;79;21105;-52
2020/12/11 02:30:33;;;;;;;248.15;137.20;;;;;;;3.89;75.12;93746.05;1814953;79;21152;-52
2020/12/11 02:33:02;;;;;;;227.90;132.25;;;;;;;4.03;74.91;93747.05;1815259;79;21108;-55
2020/12/11 02:35:31;;;;;;;252.25;139.15;;;;;;;4.15;74.38;93738.76;1815283;79;23294;-53
2020/12/11 02:37:59;;;;;;;250.43;136.35;;;;;;;4.18;74.16;93739.25;1788041;79;21184;-51
2020/12/11 02:40:28;;;;;;;233.20;126.58;;;;;;;4.20;73.74;93748.53;1815349;79;21076;-51
2020/12/11 02:42:56;;;;;;;239.80;134.35;;;;;;;4.09;73.57;93754.84;1815168;79;21143;-57
2020/12/11 02:45:24;;;;;;;246.40;132.12;;;;;;;3.97;74.05;93741.19;1815211;79;21120;-52
2020/12/11 02:47:53;;;;;;;226.73;132.18;;;;;;;4.02;74.33;93742.05;1815372;79;21363;-51
2020/12/11 02:50:22;;;;;;;204.35;114.70;;;;;;;4.13;74.11;93737.06;1815209;79;21594;-53
2020/12/11 02:52:50;;;;;;;221.10;123.20;;;;;;;4.17;73.66;93743.95;1815253;79;21072;-51
2020/12/11 02:55:19;;;;;;;232.55;124.55;;;;;;;4.08;73.60;93753.93;1815382;79;21656;-52
2020/12/11 02:57:47;;;;;;;246.07;131.90;;;;;;;4.03;73.89;93755.20;1815442;79;21711;-52
2020/12/11 03:00:16;;;;;;;241.78;129.70;;;;;;;4.05;73.84;93759.63;1815353;78;21610;-53
2020/12/11 03:02:44;;;;;;;232.83;127.53;;;;;;;4.09;73.86;93758.17;1815195;79;21109;-58
2020/12/11 03:05:13;;;;;;;244.95;137.45;;;;;;;4.17;73.76;93745.89;1815110;78;21129;-54
2020/12/11 03:07:42;;;;;;;210.02;117.80;;;;;;;4.19;73.78;93738.83;1815339;79;21636;-57
2020/12/11 03:10:11;;;;;;;227.78;128.93;;;;;;;4.14;73.50;93746.17;1815204;79;21160;-51
2020/12/11 03:12:40;;;;;;;209.52;120.97;;;;;;;3.99;73.75;93751.83;1815187;78;21492;-51
2020/12/11 03:15:08;;;;;;;213.35;122.22;;;;;;;3.93;74.08;93749.47;1814899;79;21084;-51
2020/12/11 03:17:37;;;;;;;202.25;114.28;;;;;;;3.91;74.16;93749.72;1786835;79;21171;-59
2020/12/11 03:20:05;;;;;;;212.72;118.97;;;;;;;3.94;74.12;93751.58;1728833;81;21614;-50
2020/12/11 03:22:35;;;;;;;201.70;115.32;;;;;;;3.94;74.13;93749.63;1739873;81;21186;-53
2020/12/11 03:25:05;;;;;;;192.57;112.22;;;;;;;3.95;74.16;93755.24;1739799;82;21445;-53
2020/12/11 03:27:34;;;;;;;200.75;116.90;;;;;;;3.98;74.26;93759.82;1739756;82;21535;-52
2020/12/11 03:30:03;;;;;;;196.12;119.00;;;;;;;4.03;74.40;93753.09;1739807;82;21186;-55
2020/12/11 03:32:32;;;;;;;170.82;100.72;;;;;;;4.13;74.34;93745.23;1739908;82;21170;-53
2020/12/11 03:35:01;;;;;;;192.80;109.48;;;;;;;4.21;73.89;93745.97;1739899;81;21126;-53
2020/12/11 03:37:30;;;;;;;188.78;105.00;;;;;;;4.18;73.67;93748.20;1740083;82;22247;-51
2020/12/11 03:39:58;;;;;;;193.28;107.78;;;;;;;4.11;73.68;93754.42;1739804;81;21091;-55
2020/12/11 03:42:27;;;;;;;220.97;121.45;;;;;;;4.04;73.75;93754.62;1740023;82;21563;-52
2020/12/11 03:44:56;;;;;;;224.98;125.02;;;;;;;3.96;73.96;93755.41;1739901;82;21134;-53
2020/12/11 03:47:24;;;;;;;242.22;134.85;;;;;;;3.96;74.39;93747.24;1740025;81;21643;-52
2020/12/11 03:49:53;;;;;;;216.48;123.38;;;;;;;4.04;74.43;93752.66;1739799;82;22362;-52
2020/12/11 03:52:22;;;;;;;177.50;100.18;;;;;;;4.10;74.25;93746.88;1739843;82;21587;-51
2020/12/11 03:54:51;;;;;;;208.87;120.37;;;;;;;4.09;73.99;93739.88;1739897;81;21154;-54
2020/12/11 03:57:19;;;;;;;209.10;124.70;;;;;;;3.94;74.10;93743.41;1740028;82;21167;-51
2020/12/11 03:59:48;;;;;;;242.60;140.12;;;;;;;3.79;74.52;93736.23;1739948;81;21186;-51
2020/12/11 04:02:17;;;;;;;243.33;143.30;;;;;;;3.71;74.96;93734.88;1739874;81;22143;-51
2020/12/11 04:04:46;;;;;;;225.62;136.18;;;;;;;3.75;75.37;93732.84;1739669;81;21241;-53
2020/12/11 04:07:14;;;;;;;224.37;129.42;;;;;;;3.85;75.48;93737.23;1739800;81;21539;-55
2020/12/11 04:09:43;;;;;;;218.60;129.23;;;;;;;3.95;75.16;93735.42;1739790;82;22309;-50
2020/12/11 04:12:12;;;;;;;227.13;133.15;;;;;;;3.92;74.91;93747.94;1739927;82;21189;-51
2020/12/11 04:14:40;;;;;;;217.50;126.47;;;;;;;3.87;75.15;93744.97;1739820;82;21418;-52
2020/12/11 04:17:08;;;;;;;188.65;116.12;;;;;;;3.88;75.21;93741.80;1738429;82;21569;-53
2020/12/11 04:19:39;;;;;;;216.70;124.02;;;;;;;3.90;75.13;93736.70;1774122;80;21188;-52
2020/12/11 04:22:07;;;;;;;217.80;123.55;;;;;;;3.92;75.25;93741.72;1776734;80;21206;-51
2020/12/11 04:24:37;;;;;;;217.50;127.25;;;;;;;3.98;75.27;93731.25;1776759;80;21203;-52
2020/12/11 04:27:05;;;;;;;221.18;128.72;;;;;;;4.08;75.21;93726.72;1776617;80;21383;-51
2020/12/11 04:29:35;;;;;;;194.28;118.57;;;;;;;4.14;74.88;93729.84;1776674;80;21611;-56
2020/12/11 04:32:04;;;;;;;188.47;114.00;;;;;;;4.14;75.01;93731.20;1776768;80;21128;-53
2020/12/11 04:34:33;;;;;;;203.22;120.75;;;;;;;4.21;74.89;93728.28;1776604;80;21203;-52
2020/12/11 04:37:02;;;;;;;200.05;120.35;;;;;;;4.25;74.84;93728.94;1776700;80;21210;-52
2020/12/11 04:39:31;;;;;;;193.75;116.97;;;;;;;4.34;74.62;93723.64;1776544;80;21500;-53
2020/12/11 04:41:59;;;;;;;198.05;119.82;;;;;;;4.37;74.26;93720.05;1776687;80;21136;-54
2020/12/11 04:44:28;;;;;;;196.70;119.22;;;;;;;4.36;74.16;93728.05;1776774;80;21135;-52
2020/12/11 04:46:56;;;;;;;203.37;123.10;;;;;;;4.41;74.26;93732.95;1776564;80;22557;-51
2020/12/11 04:49:25;;;;;;;215.57;132.32;;;;;;;4.48;74.07;93728.69;1776613;80;21128;-53
2020/12/11 04:51:54;;;;;;;208.55;126.38;;;;;;;4.51;73.84;93731.91;1776600;80;21363;-52
2020/12/11 04:54:23;;;;;;;189.25;119.87;;;;;;;4.54;73.92;93728.89;1776559;80;21667;-57
2020/12/11 04:56:51;;;;;;;198.95;124.02;;;;;;;4.59;73.69;93734.58;1776586;80;21179;-53
2020/12/11 04:59:20;;;;;;;186.05;112.95;;;;;;;4.65;73.58;93733.45;1776491;80;21219;-51
2020/12/11 05:01:49;;;;;;;176.42;112.90;;;;;;;4.68;73.48;93730.63;1776716;80;21493;-53
2020/12/11 05:04:18;;;;;;;176.18;110.37;;;;;;;4.70;73.17;93728.81;1776799;80;21242;-54
2020/12/11 05:06:46;;;;;;;178.60;107.50;;;;;;;4.65;72.99;93727.41;1776686;80;21512;-54
2020/12/11 05:09:17;;;;;;;178.27;110.15;;;;;;;4.59;73.06;93724.30;1776738;80;21175;-53
2020/12/11 05:11:47;;;;;;;181.95;113.50;;;;;;;4.54;73.30;93720.14;1776545;80;21219;-52
2020/12/11 05:14:34;;;;;;;177.35;112.77;;;;;;;4.55;73.38;93727.11;1798675;78;21099;-54
2020/12/11 05:17:05;;;;;;;176.32;109.05;;;;;;;4.58;73.55;93724.88;1786894;79;22126;-54
2020/12/11 05:19:52;;;;;;;175.25;110.32;;;;;;;4.63;73.39;93721.61;1806808;79;21143;-53
2020/12/11 05:22:22;;;;;;;176.15;107.75;;;;;;;4.66;73.34;93715.91;1807133;79;21496;-53
2020/12/11 05:24:53;;;;;;;178.25;106.58;;;;;;;4.62;73.07;93709.19;1807201;79;21072;-53
2020/12/11 05:27:38;;;;;;;176.35;108.20;;;;;;;4.54;73.15;93713.92;1806957;78;21040;-53
2020/12/11 05:30:20;;;;;;;177.68;108.67;;;;;;;4.46;73.35;93714.72;1807119;79;21257;-56
2020/12/11 05:32:57;;;;;;;174.95;107.25;;;;;;;4.45;73.41;93713.19;1807114;79;21496;-53
2020/12/11 05:35:31;;;;;;;186.03;114.08;;;;;;;4.46;73.54;93715.33;1783006;79;21175;-53
2020/12/11 05:38:04;;;;;;;213.80;124.15;;;;;;;4.47;73.61;93716.86;1807037;79;21055;-52
2020/12/11 05:40:36;;;;;;;228.20;132.82;;;;;;;4.45;73.50;93707.00;1807333;79;21211;-53
2020/12/11 05:43:23;;;;;;;209.37;123.55;;;;;;;4.43;73.61;93714.23;1807166;79;21272;-52
2020/12/11 05:45:58;;;;;;;226.55;131.47;;;;;;;4.44;73.66;93717.11;1807209;79;21119;-52
2020/12/11 05:48:35;;;;;;;215.32;119.28;;;;;;;4.48;73.71;93715.66;1807147;79;21061;-53
2020/12/11 05:51:14;;;;;;;230.70;129.87;;;;;;;4.51;73.49;93722.95;1807217;79;21138;-54
2020/12/11 05:53:43;;;;;;;191.50;114.25;;;;;;;4.49;73.40;93713.09;1782768;79;21607;-53
2020/12/11 05:56:13;;;;;;;169.93;107.55;;;;;;;4.53;73.45;93723.28;1807292;79;21180;-53
2020/12/11 05:58:42;;;;;;;177.72;109.83;;;;;;;4.56;73.55;93717.74;1807052;79;21183;-53
2020/12/11 06:01:18;;;;;;;169.47;106.87;;;;;;;4.68;73.68;93722.45;1807141;79;21076;-53
2020/12/11 06:03:47;;;;;;;173.90;108.52;;;;;;;4.80;73.19;93725.77;1807176;79;21078;-55
2020/12/11 06:06:16;;;;;;;174.18;108.70;;;;;;;4.84;72.96;93725.67;1807236;79;21148;-53
2020/12/11 06:08:45;;;;;;;172.15;106.50;;;;;;;4.87;72.87;93727.52;1807133;79;21616;-54
2020/12/11 06:11:19;;;;;;;164.32;103.65;;;;;;;4.89;72.67;93724.54;1807080;79;21142;-53
2020/12/11 06:13:52;;;;;;;176.25;107.30;;;;;;;4.91;72.45;93722.14;1807212;79;21048;-53
2020/12/11 06:16:21;;;;;;;182.93;110.37;;;;;;;4.88;72.19;93729.83;1805158;79;21131;-54
2020/12/11 06:18:54;;;;;;;200.55;119.87;;;;;;;4.78;72.28;93732.25;1807118;79;21124;-56
2020/12/11 06:21:23;;;;;;;195.92;122.47;;;;;;;4.68;72.46;93733.94;1806838;79;21348;-56
2020/12/11 06:23:54;;;;;;;172.80;108.83;;;;;;;4.58;72.85;93733.05;1806594;79;21132;-55
2020/12/11 06:26:24;;;;;;;202.07;124.62;;;;;;;4.59;72.93;93738.66;1806646;79;21143;-53
2020/12/11 06:28:53;;;;;;;247.27;148.47;;;;;;;4.54;72.92;93743.28;1805777;78;21147;-56
2020/12/11 06:31:22;;;;;;;256.07;152.38;;;;;;;4.51;73.18;93735.98;1787896;79;21209;-55
2020/12/11 06:33:53;;;;;;;224.15;137.50;;;;;;;4.52;73.17;93736.16;1774636;80;21467;-54
2020/12/11 06:36:22;;;;;;;217.25;129.93;;;;;;;4.54;73.13;93737.84;1729580;83;21263;-54
2020/12/11 06:38:56;;;;;;;223.57;137.25;;;;;;;4.54;73.14;93743.87;1761613;81;21210;-55
2020/12/11 06:41:35;;;;;;;226.07;137.00;;;;;;;4.54;73.42;93739.78;1743880;82;21200;-57
2020/12/11 06:44:17;;;;;;;194.67;124.85;;;;;;;4.55;73.41;93740.73;1761751;81;21127;-54
2020/12/11 06:47:10;;;;;;;200.78;120.92;;;;;;;4.62;73.48;93737.78;1761540;81;21166;-53
2020/12/11 06:50:08;;;;;;;213.35;129.40;;;;;;;4.72;73.28;93735.36;1736302;81;21087;-53
2020/12/11 06:52:36;;;;;;;207.72;131.52;;;;;;;4.81;73.24;93731.38;1725519;83;21127;-52
2020/12/11 06:55:05;;;;;;;197.78;125.47;;;;;;;4.89;72.87;93733.30;1761437;81;21556;-54
2020/12/11 06:57:40;;;;;;;205.67;124.65;;;;;;;4.90;72.61;93735.60;1761686;81;21555;-53
2020/12/11 07:00:31;;;;;;;241.40;150.80;;;;;;;4.87;72.44;93736.48;1761139;81;21385;-54
2020/12/11 07:03:17;;;;;;;245.65;153.65;;;;;;;4.81;72.73;93736.83;1760815;81;21098;-54
2020/12/11 07:05:46;;;;;;;239.25;148.22;;;;;;;4.83;72.77;93724.89;1760961;81;21135;-54
2020/12/11 07:08:19;;;;;;;294.15;180.35;;;;;;;4.84;72.63;93728.40;1739765;81;21152;-55
2020/12/11 07:10:48;;;;;;;283.15;180.32;;;;;;;4.78;72.67;93733.62;1756147;80;21181;-53
2020/12/11 07:13:16;;;;;;;280.62;179.25;;;;;;;4.64;72.75;93740.09;1783929;80;21433;-56
2020/12/11 07:15:45;;;;;;;298.65;182.75;;;;;;;4.52;73.14;93739.45;1783715;80;21162;-56
2020/12/11 07:18:17;;;;;;;276.98;174.82;;;;;;;4.46;73.44;93739.22;1757451;80;21187;-57
2020/12/11 07:20:55;;;;;;;303.42;195.10;;;;;;;4.50;73.58;93742.63;1783921;79;21607;-54
2020/12/11 07:23:24;;;;;;;330.50;198.78;;;;;;;4.55;73.68;93741.31;1784109;79;21121;-56
2020/12/11 07:25:56;;;;;;;279.38;181.30;;;;;;;4.61;73.68;93740.34;1783967;80;21202;-56
2020/12/11 07:28:25;;;;;;;281.40;177.60;;;;;;;4.71;73.67;93735.78;1783941;79;21216;-56
2020/12/11 07:30:54;;;;;;;279.02;179.87;;;;;;;4.81;73.49;93727.30;1784022;80;21126;-60
2020/12/11 07:33:33;;;;;;;;;;;;;;;4.88;73.17;93724.38;1759086;80;21075;-53
2020/12/11 07:36:01;;;;;;;324.05;197.15;;;;;;;4.95;73.20;93724.77;1783812;80;20221;-56
2020/12/11 07:38:30;;;;;;;466.70;280.27;;;;;;;5.02;73.05;93726.67;1783992;80;21207;-59
2020/12/11 07:41:03;;;;;;;536.00;314.02;;;;;;;5.10;72.73;93726.61;1783890;80;21126;-56
2020/12/11 07:43:31;;;;;;;397.52;234.37;;;;;;;5.16;72.57;93727.58;1784258;80;21668;-56
2020/12/11 07:46:00;;;;;;;322.40;200.32;;;;;;;5.24;72.25;93728.89;1783779;80;21182;-54
2020/12/11 07:48:29;;;;;;;327.15;207.77;;;;;;;5.24;72.03;93724.19;1794792;78;21477;-60
2020/12/11 07:51:02;;;;;;;336.80;218.02;;;;;;;5.20;72.26;93728.25;1769662;80;22251;-58
2020/12/11 07:53:30;;;;;;;261.92;176.95;;;;;;;5.25;72.21;93733.89;1773555;80;21594;-56
2020/12/11 07:55:59;;;;;;;234.45;152.12;;;;;;;5.30;71.94;93738.05;1773185;80;21128;-57
2020/12/11 07:58:29;;;;;;;265.73;170.62;;;;;;;5.18;71.71;93746.98;1786585;79;21184;-56
2020/12/11 08:00:57;;;;;;;245.82;160.00;;;;;;;5.00;72.02;93738.58;1810073;78;21068;-57
2020/12/11 08:03:27;;;;;;;251.00;166.47;;;;;;;4.92;72.32;93732.42;1807819;79;21367;-62
2020/12/11 08:05:56;;;;;;;278.30;178.50;;;;;;;4.85;72.35;93738.88;1808070;79;21158;-62
2020/12/11 08:08:26;;;;;;;257.52;172.05;;;;;;;4.83;72.76;93726.26;1808789;79;21135;-62
2020/12/11 08:10:55;;;;;;;266.17;178.90;;;;;;;4.82;72.66;93732.91;1808076;79;21171;-57
2020/12/11 08:13:27;;;;;;;318.95;211.55;;;;;;;4.66;73.04;93733.61;1807910;78;21171;-58
2020/12/11 08:16:01;;;;;;;277.77;186.22;;;;;;;4.57;73.37;93733.50;1809428;79;21328;-59
2020/12/11 08:18:30;;;;;;;272.75;186.85;;;;;;;4.59;73.74;93741.38;1814077;79;21064;-65
2020/12/11 08:21:01;;;;;;;304.32;191.98;;;;;;;4.67;73.71;93745.44;1772795;80;21771;-57
2020/12/11 08:23:45;;;;;;;296.20;193.43;;;;;;;4.78;73.77;93739.06;1813679;78;21199;-56
2020/12/11 08:26:18;;;;;;;268.02;164.52;;;;;;;4.92;73.56;93735.92;1814096;79;21645;-62
2020/12/11 08:28:49;;;;;;;310.23;208.17;;;;;;;5.08;73.00;93733.09;1813245;79;21484;-60
2020/12/11 08:31:26;;;;;;;277.07;180.70;;;;;;;5.00;72.93;93735.86;1811688;78;21568;-60
2020/12/11 08:34:04;;;;;;;311.23;205.95;;;;;;;4.88;73.04;93745.40;1787990;78;21671;-59
2020/12/11 08:36:37;;;;;;;353.65;234.85;;;;;;;4.72;73.49;93747.62;1772475;79;21170;-55
2020/12/11 08:39:12;;;;;;;402.28;265.85;;;;;;;4.69;73.73;93741.69;1783732;79;21113;-53
2020/12/11 08:41:47;;;;;;;350.80;232.55;;;;;;;4.69;73.93;93729.43;1814267;78;21354;-60
2020/12/11 08:50:21;;;;;;;321.40;220.67;;;;;;;4.70;74.19;93730.95;1872081;76;22396;-56
2020/12/11 08:52:41;;;;;;;293.77;197.05;;;;;;;4.61;74.17;93728.09;1837838;77;21074;-58
2020/12/11 08:55:10;;;;;;;307.10;207.18;;;;;;;4.58;74.38;93734.41;1839967;77;21187;-56
2020/12/11 08:57:38;;;;;;;315.18;209.00;;;;;;;4.60;74.69;93738.08;1839957;78;21201;-56
2020/12/11 09:00:08;;;;;;;305.18;203.62;;;;;;;4.73;74.86;93727.36;1840590;77;21137;-55
2020/12/11 09:02:37;;;;;;;291.38;190.47;;;;;;;4.91;74.43;93724.86;1840638;78;21137;-55
2020/12/11 09:05:06;;;;;;;297.70;211.15;;;;;;;5.02;74.20;93722.59;1840742;77;21205;-60
2020/12/11 09:07:38;;;;;;;317.95;218.57;;;;;;;5.00;73.84;93726.33;1840079;77;21240;-65
2020/12/11 09:10:15;;;;;;;299.23;208.17;;;;;;;5.01;74.05;93726.48;1887155;75;22499;-59
2020/12/11 09:12:48;;;;;;;292.68;201.70;;;;;;;5.01;74.09;93722.40;1774401;80;21171;-61
2020/12/11 09:15:22;;;;;;;306.85;208.35;;;;;;;5.07;73.77;93712.50;1743851;81;21909;-54
2020/12/11 09:17:50;;;;;;;269.48;189.57;;;;;;;5.11;73.96;93707.69;1778083;80;21187;-60
2020/12/11 09:20:21;;;;;;;304.05;206.93;;;;;;;5.19;73.74;93722.61;1764290;80;21195;-55
2020/12/11 09:22:50;;;;;;;329.85;232.87;;;;;;;5.17;73.27;93723.66;1757827;81;21155;-57
2020/12/11 09:25:20;;;;;;;322.88;224.20;;;;;;;5.08;73.45;93716.75;1758293;81;21151;-57
2020/12/11 09:27:49;;;;;;;350.50;248.13;;;;;;;5.07;73.76;93715.22;1763870;80;21341;-58
2020/12/11 09:30:24;;;;;;;263.37;176.20;;;;;;;5.05;73.91;93701.27;1762896;80;21161;-58
2020/12/11 09:32:57;;;;;;;260.32;175.65;;;;;;;5.11;74.12;93709.05;1820521;78;21627;-61
2020/12/11 09:35:21;;;;;;;232.20;156.52;;;;;;;5.07;74.11;93694.78;1820499;78;21615;-55
2020/12/11 09:37:51;;;;;;;212.60;136.65;;;;;;;4.98;74.22;93701.47;1820717;78;21186;-57
2020/12/11 09:40:24;;;;;;;218.93;144.85;;;;;;;4.87;74.46;93692.88;1820841;77;21158;-56
2020/12/11 09:43:09;;;;;;;176.50;118.50;;;;;;;4.81;75.00;93691.13;1820885;77;21623;-57
2020/12/11 09:45:30;;;;;;;163.15;111.30;;;;;;;4.87;75.18;93684.70;1819068;78;21111;-58
2020/12/11 09:48:15;;;;;;;153.93;100.15;;;;;;;4.91;75.05;93693.53;1820193;78;21170;-62
2020/12/11 09:53:40;;;;;;;189.25;125.20;;;;;;;4.96;75.66;93694.34;1887055;76;22480;-60
2020/12/11 09:55:57;;;;;;;184.52;122.98;;;;;;;5.02;75.70;93691.25;1767427;80;21206;-58
2020/12/11 09:58:23;;;;;;;181.67;120.17;;;;;;;5.10;75.58;93683.00;1745728;81;21612;-55
2020/12/11 10:00:52;;;;;;;178.32;121.02;;;;;;;5.21;75.63;93688.89;1774520;80;21151;-57
2020/12/11 10:03:31;;;;;;;152.35;100.10;;;;;;;5.25;75.08;93688.91;1770373;81;21075;-59
2020/12/11 10:05:55;;;;;;;184.35;118.85;;;;;;;5.25;74.95;93683.45;1774224;80;21175;-55
2020/12/11 10:08:29;;;;;;;170.10;112.30;;;;;;;5.23;75.04;93685.86;1773230;81;21725;-55
2020/12/11 10:10:59;;;;;;;170.38;120.13;;;;;;;5.25;75.00;93682.09;1774330;80;21385;-53
2020/12/11 10:13:29;;;;;;;159.93;108.63;;;;;;;5.28;75.17;93679.11;1772999;81;21655;-56
2020/12/11 10:15:58;;;;;;;174.55;117.55;;;;;;;5.34;75.35;93686.30;1769945;80;21238;-56
2020/12/11 10:18:27;;;;;;;169.62;119.62;;;;;;;5.42;75.16;93684.84;1746688;80;21280;-57
2020/12/11 10:20:57;;;;;;;177.35;120.90;;;;;;;5.49;75.12;93688.72;1827168;78;21134;-57
2020/12/11 10:23:37;;;;;;;183.70;126.05;;;;;;;5.60;74.95;93687.00;1789618;78;21079;-58
2020/12/11 10:26:07;;;;;;;201.10;138.20;;;;;;;5.73;74.65;93680.88;1826932;78;21202;-57
2020/12/11 10:28:39;;;;;;;218.85;148.95;;;;;;;5.81;74.62;93690.40;1784979;79;21202;-57
2020/12/11 10:31:18;;;;;;;205.05;142.65;;;;;;;6.04;74.24;93681.78;1872500;75;22367;-56
2020/12/11 10:33:50;;;;;;;221.93;156.85;;;;;;;6.12;73.46;93673.52;1840465;77;21606;-59
2020/12/11 10:36:41;;;;;;;224.47;154.53;;;;;;;6.13;73.38;93673.06;1841072;78;21458;-60
2020/12/11 10:39:17;;;;;;;194.00;137.50;;;;;;;6.30;73.71;93670.30;1811333;78;21209;-56
2020/12/11 10:41:46;;;;;;;218.65;156.97;;;;;;;6.55;73.60;93661.19;1840335;77;21125;-59
2020/12/11 10:44:17;;;;;;;214.60;145.22;;;;;;;6.62;73.36;93665.78;1810925;78;21117;-59
2020/12/11 10:46:53;;;;;;;189.80;132.72;;;;;;;6.73;73.11;93655.81;1811757;78;21140;-67
2020/12/11 10:49:23;;;;;;;144.35;104.15;;;;;;;6.74;72.80;93657.33;1840265;77;22287;-61
2020/12/11 10:51:52;;;;;;;158.35;109.95;;;;;;;6.64;72.24;93659.85;1808661;77;21623;-69
2020/12/11 10:57:07;;;;;;;115.47;79.20;;;;;;;6.33;72.42;93650.28;1775551;78;24092;-58
2020/12/11 10:59:36;;;;;;;126.45;88.92;;;;;;;6.14;72.97;93642.44;1748242;82;21465;-62
2020/12/11 11:02:09;;;;;;;147.15;99.77;;;;;;;5.98;73.25;93646.10;1748160;82;21227;-58
2020/12/11 11:04:45;;;;;;;143.15;104.03;;;;;;;5.83;73.77;93638.87;1743511;80;21190;-58
2020/12/11 11:07:18;;;;;;;128.62;84.00;;;;;;;5.81;74.07;93633.09;1686468;83;21653;-60
2020/12/11 11:09:49;;;;;;;140.82;95.85;;;;;;;5.80;74.37;93636.41;1685129;85;21664;-57
2020/12/11 11:12:28;;;;;;;155.03;100.80;;;;;;;5.83;74.72;93632.05;1685323;85;21199;-61
2020/12/11 11:26:05;;;;;;;144.37;96.92;;;;;;;6.13;74.78;93602.69;1679366;84;21215;-58
2020/12/11 11:28:16;;;;;;;153.38;105.12;;;;;;;6.14;74.64;93587.22;1637482;86;22338;-64
2020/12/11 11:30:48;;;;;;;149.68;100.07;;;;;;;6.11;74.68;93571.73;1652097;86;21238;-61
2020/12/11 11:33:20;;;;;;;156.55;108.57;;;;;;;6.10;74.74;93553.05;1627653;85;21274;-59
2020/12/11 11:35:50;;;;;;;142.03;97.67;;;;;;;6.03;74.97;93556.84;1666969;85;21242;-61
2020/12/11 11:38:19;;;;;;;159.78;103.72;;;;;;;5.93;75.27;93564.05;1663327;85;21185;-55
2020/12/11 11:40:50;;;;;;;195.18;120.92;;;;;;;5.81;75.69;93571.08;1667067;85;22284;-65
2020/12/11 11:43:41;;;;;;;182.40;112.40;;;;;;;5.80;76.21;93571.55;1635254;86;21194;-65
2020/12/11 11:45:56;;;;;;;168.00;107.63;;;;;;;5.87;76.33;93578.09;1655591;83;21265;-60
2020/12/11 11:48:27;;;;;;;200.00;122.80;;;;;;;5.96;76.49;93584.99;1677130;83;21189;-53